createdAt,value
2022-10-31T00:01:31.362Z,9.52
2022-10-31T00:03:57.889Z,9.15
2022-10-31T00:06:25.006Z,9.73
2022-10-31T00:08:56.010Z,8.73
2022-10-31T00:11:22.826Z,7.90
2022-10-31T00:13:49.346Z,8.25
2022-10-31T00:16:16.434Z,9.35
2022-10-31T00:18:43.067Z,9.02
2022-10-31T00:21:09.533Z,9.23
2022-10-31T00:23:36.146Z,8.18
2022-10-31T00:26:04.759Z,9.07
2022-10-31T00:28:31.789Z,8.77
2022-10-31T00:31:00.025Z,8.65
2022-10-31T00:33:26.461Z,9.43
2022-10-31T00:35:52.845Z,9.02
2022-10-31T00:38:19.275Z,9.95
2022-10-31T00:40:45.710Z,9.88
2022-10-31T00:43:13.486Z,9.63
2022-10-31T00:45:39.963Z,9.07
2022-10-31T00:48:06.661Z,10.05
2022-10-31T00:50:33.191Z,10.50
2022-10-31T00:52:59.773Z,10.15
2022-10-31T00:55:26.336Z,10.38
2022-10-31T00:57:52.788Z,10.38
2022-10-31T01:00:21.029Z,10.20
2022-10-31T01:02:47.688Z,11.50
2022-10-31T01:05:14.852Z,11.00
2022-10-31T01:07:42.333Z,11.45
2022-10-31T01:10:10.058Z,12.25
2022-10-31T01:12:37.298Z,13.43
2022-10-31T01:15:05.165Z,13.38
2022-10-31T01:17:33.031Z,15.20
2022-10-31T01:19:59.413Z,15.25
2022-10-31T01:22:25.856Z,15.30
2022-10-31T01:24:52.260Z,15.38
2022-10-31T01:27:18.835Z,15.27
2022-10-31T01:29:45.248Z,17.50
2022-10-31T01:32:11.662Z,17.60
2022-10-31T01:34:40.532Z,18.88
2022-10-31T01:37:09.990Z,19.77
2022-10-31T01:39:36.490Z,18.10
2022-10-31T01:42:03.015Z,19.45
2022-10-31T01:44:52.862Z,19.92
2022-10-31T01:47:22.367Z,20.05
2022-10-31T01:49:53.511Z,21.60
2022-10-31T01:52:23.792Z,20.50
2022-10-31T01:54:55.355Z,20.77
2022-10-31T01:57:22.850Z,21.05
2022-10-31T01:59:52.847Z,20.73
2022-10-31T02:02:20.263Z,22.38
2022-10-31T02:04:48.304Z,21.88
2022-10-31T02:07:21.013Z,23.13
2022-10-31T02:09:50.040Z,22.97
2022-10-31T02:12:18.275Z,24.63
2022-10-31T02:14:45.025Z,23.42
2022-10-31T02:17:11.581Z,24.00
2022-10-31T02:19:52.119Z,22.67
2022-10-31T02:22:27.048Z,24.90
2022-10-31T02:25:07.041Z,24.38
2022-10-31T02:28:16.090Z,25.35
2022-10-31T02:31:08.618Z,25.80
2022-10-31T02:33:42.912Z,24.30
2022-10-31T02:36:18.085Z,26.10
2022-10-31T02:38:57.177Z,25.63
2022-10-31T02:41:35.906Z,24.70
2022-10-31T02:44:10.216Z,24.98
2022-10-31T02:46:45.049Z,25.80
2022-10-31T02:49:23.740Z,25.98
2022-10-31T02:51:51.192Z,24.52
2022-10-31T02:54:24.158Z,24.80
2022-10-31T02:56:53.457Z,25.85
2022-10-31T02:59:20.607Z,26.38
2022-10-31T03:02:01.885Z,24.20
2022-10-31T03:05:14.657Z,25.00
2022-10-31T03:07:48.115Z,26.08
2022-10-31T03:10:21.016Z,25.45
2022-10-31T03:12:55.975Z,25.27
2022-10-31T03:15:27.842Z,24.90
2022-10-31T03:18:09.353Z,25.58
2022-10-31T03:20:41.049Z,24.73
2022-10-31T03:23:12.179Z,25.10
2022-10-31T03:25:40.338Z,23.33
2022-10-31T03:28:08.116Z,23.90
2022-10-31T03:30:38.287Z,23.60
2022-10-31T03:33:10.731Z,24.00
2022-10-31T03:35:39.757Z,25.08
2022-10-31T03:38:08.053Z,24.40
2022-10-31T03:40:37.732Z,25.88
2022-10-31T03:43:08.605Z,24.67
2022-10-31T03:45:38.695Z,24.55
2022-10-31T03:48:06.874Z,26.08
2022-10-31T03:50:39.946Z,26.10
2022-10-31T03:53:12.619Z,25.35
2022-10-31T03:55:44.394Z,26.57
2022-10-31T04:00:52.723Z,24.73
2022-10-31T04:03:26.122Z,25.40
2022-10-31T04:05:55.889Z,24.85
2022-10-31T04:08:27.760Z,26.30
2022-10-31T04:10:56.948Z,24.55
2022-10-31T04:13:27.838Z,26.35
2022-10-31T04:15:55.894Z,26.65
2022-10-31T04:18:24.992Z,26.67
2022-10-31T04:21:01.139Z,26.00
2022-10-31T04:23:27.808Z,25.75
2022-10-31T04:25:54.233Z,26.25
2022-10-31T04:28:20.677Z,26.50
2022-10-31T04:30:47.116Z,27.45
2022-10-31T04:33:13.531Z,26.73
2022-10-31T04:35:41.338Z,27.75
2022-10-31T04:38:07.801Z,27.30
2022-10-31T04:40:34.223Z,26.65
2022-10-31T04:43:00.961Z,29.23
2022-10-31T04:45:27.890Z,27.00
2022-10-31T04:47:54.266Z,27.23
2022-10-31T04:50:20.800Z,27.08
2022-10-31T04:52:48.570Z,26.35
2022-10-31T04:55:15.120Z,25.98
2022-10-31T04:57:42.382Z,26.00
2022-10-31T05:00:10.030Z,25.48
2022-10-31T05:02:44.668Z,26.02
2022-10-31T05:05:11.563Z,25.40
2022-10-31T05:07:39.746Z,25.75
2022-10-31T05:10:08.777Z,23.42
2022-10-31T05:12:35.181Z,24.85
2022-10-31T05:15:01.623Z,24.98
2022-10-31T05:17:28.005Z,28.15
2022-10-31T05:19:54.412Z,27.92
2022-10-31T05:22:20.817Z,25.80
2022-10-31T05:24:48.141Z,24.27
2022-10-31T05:27:16.287Z,25.60
2022-10-31T05:29:42.711Z,24.33
2022-10-31T05:32:09.130Z,23.25
2022-10-31T05:34:35.541Z,26.23
2022-10-31T05:37:02.021Z,24.73
2022-10-31T05:39:28.431Z,24.08
2022-10-31T05:41:54.886Z,24.88
2022-10-31T05:44:22.737Z,27.45
2022-10-31T05:46:49.203Z,25.15
2022-10-31T05:49:15.925Z,24.13
2022-10-31T05:51:42.448Z,24.30
2022-10-31T05:54:13.301Z,26.10
2022-10-31T05:56:42.232Z,26.83
2022-10-31T05:59:08.715Z,25.52
2022-10-31T06:01:36.514Z,23.75
2022-10-31T06:04:02.969Z,22.85
2022-10-31T06:06:29.349Z,25.20
2022-10-31T06:08:55.894Z,25.77
2022-10-31T06:11:22.307Z,25.98
2022-10-31T06:13:48.890Z,23.33
2022-10-31T06:16:15.293Z,25.42
2022-10-31T06:18:43.037Z,27.48
2022-10-31T06:21:10.773Z,24.02
2022-10-31T06:23:39.018Z,24.58
2022-10-31T06:26:05.601Z,25.63
2022-10-31T06:28:32.014Z,24.52
2022-10-31T06:30:58.414Z,23.15
2022-10-31T06:33:25.256Z,24.00
2022-10-31T06:35:53.031Z,23.48
2022-10-31T06:38:19.483Z,24.05
2022-10-31T06:40:45.961Z,23.58
2022-10-31T06:43:12.359Z,22.95
2022-10-31T06:45:38.818Z,23.67
2022-10-31T06:48:21.744Z,23.38
2022-10-31T06:50:48.510Z,24.17
2022-10-31T06:53:16.553Z,25.35
2022-10-31T06:55:43.402Z,23.45
2022-10-31T06:58:11.608Z,24.42
2022-10-31T07:00:38.165Z,23.33
2022-10-31T07:03:06.604Z,22.48
2022-10-31T07:05:33.394Z,23.02
2022-10-31T07:08:01.759Z,23.35
2022-10-31T07:10:37.251Z,22.52
2022-10-31T07:13:09.468Z,23.50
2022-10-31T07:15:39.310Z,24.42
2022-10-31T07:18:09.037Z,22.60
2022-10-31T07:20:35.825Z,21.50
2022-10-31T07:23:02.575Z,22.55
2022-10-31T07:25:30.733Z,22.45
2022-10-31T07:27:57.516Z,22.27
2022-10-31T07:30:24.136Z,20.95
2022-10-31T07:32:51.539Z,22.35
2022-10-31T07:35:20.522Z,23.70
2022-10-31T07:37:47.329Z,24.38
2022-10-31T07:40:14.038Z,21.83
2022-10-31T07:42:43.028Z,22.75
2022-10-31T07:45:11.629Z,20.70
2022-10-31T07:47:40.894Z,23.38
2022-10-31T07:50:08.896Z,22.50
2022-10-31T07:52:35.278Z,20.45
2022-10-31T07:55:02.032Z,22.15
2022-10-31T07:57:34.228Z,22.58
2022-10-31T08:00:03.335Z,22.27
2022-10-31T08:02:29.775Z,21.80
2022-10-31T08:04:58.681Z,22.58
2022-10-31T08:07:27.791Z,22.30
2022-10-31T08:09:54.453Z,22.00
2022-10-31T08:12:21.056Z,22.25
2022-10-31T08:14:47.799Z,21.08
2022-10-31T08:17:15.549Z,18.15
2022-10-31T08:19:41.920Z,20.38
2022-10-31T08:22:08.358Z,20.05
2022-10-31T08:24:34.808Z,20.10
2022-10-31T08:27:01.241Z,18.38
2022-10-31T08:29:27.756Z,20.02
2022-10-31T08:31:54.183Z,18.35
2022-10-31T08:34:21.930Z,19.40
2022-10-31T08:36:48.334Z,21.58
2022-10-31T08:39:14.744Z,20.20
2022-10-31T08:41:41.186Z,21.38
2022-10-31T08:44:07.587Z,20.27
2022-10-31T08:46:34.004Z,22.15
2022-10-31T08:49:00.445Z,20.95
2022-10-31T08:51:28.175Z,22.73
2022-10-31T08:53:54.598Z,19.65
2022-10-31T08:56:20.995Z,22.02
2022-10-31T08:58:47.377Z,19.85
2022-10-31T09:01:14.054Z,20.63
2022-10-31T09:03:40.555Z,21.58
2022-10-31T09:06:07.374Z,20.88
2022-10-31T09:08:36.163Z,21.45
2022-10-31T09:11:03.571Z,19.88
2022-10-31T09:13:30.603Z,20.98
2022-10-31T09:15:58.065Z,20.63
2022-10-31T09:18:24.629Z,20.55
2022-10-31T09:20:51.563Z,20.55
2022-10-31T09:23:19.942Z,20.63
2022-10-31T09:25:50.795Z,20.98
2022-10-31T09:28:19.106Z,22.85
2022-10-31T09:30:47.818Z,22.08
2022-10-31T09:33:14.705Z,22.58
2022-10-31T09:35:42.160Z,22.05
2022-10-31T09:38:11.117Z,21.80
2022-10-31T09:40:39.398Z,21.50
2022-10-31T09:43:15.760Z,20.38
2022-10-31T09:45:51.635Z,20.48
2022-10-31T09:48:32.021Z,19.55
2022-10-31T09:51:01.210Z,18.63
2022-10-31T09:53:34.942Z,20.42
2022-10-31T09:56:05.608Z,19.08
2022-10-31T09:58:39.081Z,18.70
2022-10-31T10:03:40.197Z,18.58
2022-10-31T10:06:14.641Z,16.08
2022-10-31T10:08:41.221Z,16.80
2022-10-31T10:11:23.654Z,15.63
2022-10-31T10:14:02.238Z,17.23
2022-10-31T10:16:52.677Z,15.40
2022-10-31T10:19:43.566Z,15.65
2022-10-31T10:22:17.029Z,15.82
2022-10-31T10:25:01.430Z,14.98
2022-10-31T10:27:47.703Z,14.68
2022-10-31T10:30:18.344Z,13.90
2022-10-31T10:32:51.908Z,14.98
2022-10-31T10:35:24.174Z,14.05
2022-10-31T10:37:54.995Z,14.02
2022-10-31T10:40:24.573Z,13.65
2022-10-31T10:42:58.937Z,14.23
2022-10-31T10:45:26.887Z,14.48
2022-10-31T10:48:05.666Z,14.05
2022-10-31T10:50:37.213Z,14.27
2022-10-31T10:53:17.321Z,13.30
2022-10-31T10:55:53.144Z,12.27
2022-10-31T10:58:19.626Z,13.68
2022-10-31T11:00:48.279Z,14.32
2022-10-31T11:03:15.440Z,14.15
2022-10-31T11:05:46.084Z,14.80
2022-10-31T11:08:27.686Z,16.65
2022-10-31T11:10:59.822Z,14.50
2022-10-31T11:13:26.314Z,15.07
2022-10-31T11:15:59.288Z,15.43
2022-10-31T11:18:27.873Z,14.15
2022-10-31T11:20:56.339Z,13.82
2022-10-31T11:23:24.230Z,13.00
2022-10-31T11:25:53.634Z,13.57
2022-10-31T11:28:20.097Z,13.63
2022-10-31T11:30:48.734Z,13.65
2022-10-31T11:33:21.620Z,12.18
2022-10-31T11:35:50.917Z,13.35
2022-10-31T11:38:22.806Z,11.95
2022-10-31T11:40:54.208Z,10.18
2022-10-31T11:43:20.938Z,10.40
2022-10-31T11:45:47.662Z,12.20
2022-10-31T11:48:20.098Z,11.57
2022-10-31T11:50:50.366Z,10.95
2022-10-31T11:53:19.163Z,10.20
2022-10-31T11:55:46.840Z,9.73
2022-10-31T11:58:24.544Z,10.00
2022-10-31T12:00:53.356Z,9.65
2022-10-31T12:03:34.307Z,10.55
2022-10-31T12:06:04.429Z,8.52
2022-10-31T12:08:34.184Z,10.35
2022-10-31T12:11:12.139Z,9.35
2022-10-31T12:13:46.522Z,9.45
2022-10-31T12:16:19.835Z,9.18
2022-10-31T12:19:01.575Z,9.38
2022-10-31T12:21:42.122Z,8.77
2022-10-31T12:24:20.821Z,9.85
2022-10-31T12:26:56.461Z,9.75
2022-10-31T12:29:36.698Z,10.32
2022-10-31T12:32:18.747Z,9.18
2022-10-31T12:35:09.295Z,9.38
2022-10-31T12:37:49.366Z,8.88
2022-10-31T12:40:37.034Z,9.15
2022-10-31T12:43:18.208Z,12.93
2022-10-31T12:45:53.364Z,13.18
2022-10-31T12:48:43.605Z,12.82
2022-10-31T12:51:20.356Z,13.18
2022-10-31T12:54:06.956Z,12.95
2022-10-31T12:56:43.550Z,13.35
2022-10-31T12:59:13.144Z,16.13
2022-10-31T13:01:47.242Z,16.38
2022-10-31T13:04:20.535Z,14.82
2022-10-31T13:06:53.826Z,14.52
2022-10-31T13:09:27.368Z,14.50
2022-10-31T13:14:27.893Z,14.60
2022-10-31T13:16:56.533Z,13.43
2022-10-31T13:19:26.439Z,13.75
2022-10-31T13:22:00.828Z,13.15
2022-10-31T13:24:34.753Z,10.95
2022-10-31T13:27:10.942Z,11.73
2022-10-31T13:29:42.973Z,10.60
2022-10-31T13:32:11.233Z,11.05
2022-10-31T13:34:40.380Z,10.65
2022-10-31T13:37:17.360Z,10.35
2022-10-31T13:39:56.086Z,12.68
2022-10-31T13:42:30.821Z,12.55
2022-10-31T13:45:12.292Z,12.70
2022-10-31T13:47:38.901Z,13.10
2022-10-31T13:50:19.508Z,14.55
2022-10-31T13:52:47.774Z,13.90
2022-10-31T13:55:42.333Z,15.93
2022-10-31T13:58:27.647Z,15.63
2022-10-31T14:01:16.144Z,15.15
2022-10-31T14:06:39.534Z,15.30
2022-10-31T14:09:19.725Z,15.63
2022-10-31T14:11:48.162Z,17.60
2022-10-31T14:14:15.645Z,18.83
2022-10-31T14:16:45.163Z,20.77
2022-10-31T14:19:17.038Z,21.45
2022-10-31T14:21:45.454Z,21.48
2022-10-31T14:24:35.343Z,22.25
2022-10-31T14:27:04.383Z,22.80
2022-10-31T14:29:31.880Z,23.75
2022-10-31T14:32:05.305Z,23.95
2022-10-31T14:34:35.070Z,22.95
2022-10-31T14:37:35.476Z,23.67
2022-10-31T14:40:18.118Z,23.40
2022-10-31T14:43:02.791Z,24.20
2022-10-31T14:45:38.149Z,24.45
2022-10-31T14:48:15.203Z,22.73
2022-10-31T14:50:47.088Z,23.77
2022-10-31T14:53:19.276Z,23.63
2022-10-31T14:55:50.057Z,22.63
2022-10-31T14:58:21.176Z,21.98
2022-10-31T15:00:48.177Z,21.73
2022-10-31T15:03:17.643Z,23.10
2022-10-31T15:05:49.985Z,23.08
2022-10-31T15:08:30.073Z,23.38
2022-10-31T15:10:57.922Z,24.77
2022-10-31T15:13:24.465Z,24.23
2022-10-31T15:15:54.975Z,22.83
2022-10-31T15:18:24.274Z,22.40
2022-10-31T15:20:52.175Z,22.98
2022-10-31T15:23:25.145Z,21.98
2022-10-31T15:25:58.671Z,22.38
2022-10-31T15:28:26.990Z,20.90
2022-10-31T15:30:55.503Z,20.90
2022-10-31T15:33:25.334Z,21.55
2022-10-31T15:35:56.410Z,21.90
2022-10-31T15:38:22.888Z,21.63
2022-10-31T15:40:55.501Z,21.65
2022-10-31T15:43:22.515Z,21.40
2022-10-31T15:45:50.591Z,22.52
2022-10-31T15:48:18.976Z,21.38
2022-10-31T15:50:49.570Z,22.50
2022-10-31T15:53:19.977Z,22.75
2022-10-31T15:55:49.915Z,21.23
2022-10-31T15:58:17.804Z,22.15
2022-10-31T16:00:44.570Z,22.73
2022-10-31T16:03:26.715Z,21.30
2022-10-31T16:05:55.254Z,22.65
2022-10-31T16:08:25.127Z,20.58
2022-10-31T16:10:51.829Z,21.85
2022-10-31T16:13:18.453Z,22.48
2022-10-31T16:15:55.797Z,22.55
2022-10-31T16:18:37.227Z,23.50
2022-10-31T16:21:04.102Z,21.73
2022-10-31T16:23:30.635Z,21.60
2022-10-31T16:25:57.141Z,23.83
2022-10-31T16:28:28.295Z,23.80
2022-10-31T16:30:57.921Z,22.95
2022-10-31T16:33:27.943Z,22.67
2022-10-31T16:36:09.536Z,22.20
2022-10-31T16:38:42.500Z,21.95
2022-10-31T16:41:08.946Z,21.70
2022-10-31T16:43:35.672Z,20.58
2022-10-31T16:46:02.135Z,23.42
2022-10-31T16:48:28.607Z,23.38
2022-10-31T16:50:56.348Z,21.45
2022-10-31T16:53:22.918Z,22.52
2022-10-31T16:55:56.561Z,22.33
2022-10-31T17:00:51.112Z,21.42
2022-10-31T17:03:17.663Z,20.85
2022-10-31T17:05:44.505Z,23.38
2022-10-31T17:08:12.787Z,21.75
2022-10-31T17:10:40.498Z,20.98
2022-10-31T17:13:11.121Z,22.63
2022-10-31T17:15:41.227Z,19.83
2022-10-31T17:18:07.641Z,19.73
2022-10-31T17:20:34.059Z,21.40
2022-10-31T17:23:00.808Z,19.77
2022-10-31T17:25:30.406Z,19.33
2022-10-31T17:27:56.873Z,20.60
2022-10-31T17:30:33.452Z,20.52
2022-10-31T17:33:00.170Z,20.23
2022-10-31T17:35:26.923Z,21.75
2022-10-31T17:37:53.335Z,20.70
2022-10-31T17:40:21.656Z,19.50
2022-10-31T17:42:53.975Z,19.95
2022-10-31T17:45:21.657Z,21.35
2022-10-31T17:47:48.839Z,20.08
2022-10-31T17:50:19.270Z,19.02
2022-10-31T17:52:45.943Z,21.92
2022-10-31T17:55:12.908Z,20.80
2022-10-31T17:57:39.729Z,21.40
2022-10-31T18:00:11.750Z,21.65
2022-10-31T18:02:38.299Z,22.15
2022-10-31T18:05:05.638Z,21.25
2022-10-31T18:07:32.198Z,22.63
2022-10-31T18:09:58.878Z,22.67
2022-10-31T18:12:25.634Z,21.48
2022-10-31T18:14:52.068Z,21.55
2022-10-31T18:17:20.215Z,20.73
2022-10-31T18:19:46.718Z,21.55
2022-10-31T18:22:13.740Z,21.73
2022-10-31T18:24:40.193Z,21.95
2022-10-31T18:27:06.990Z,22.15
2022-10-31T18:29:33.586Z,23.08
2022-10-31T18:31:59.979Z,22.65
2022-10-31T18:34:27.713Z,21.80
2022-10-31T18:36:54.136Z,21.92
2022-10-31T18:39:20.503Z,23.13
2022-10-31T18:41:46.893Z,22.42
2022-10-31T18:44:13.310Z,22.60
2022-10-31T18:46:39.697Z,23.55
2022-10-31T18:49:06.078Z,23.67
2022-10-31T18:51:33.843Z,25.15
2022-10-31T18:54:01.215Z,25.95
2022-10-31T18:56:29.053Z,26.17
2022-10-31T18:58:55.484Z,29.00
2022-10-31T19:01:22.333Z,29.45
2022-10-31T19:03:53.051Z,31.00
2022-10-31T19:06:19.610Z,30.73
2022-10-31T19:08:47.366Z,31.05
2022-10-31T19:11:15.126Z,35.90
2022-10-31T19:13:42.572Z,36.08
2022-10-31T19:16:10.981Z,36.10
2022-10-31T19:18:38.392Z,38.40
2022-10-31T19:21:06.112Z,40.20
2022-10-31T19:23:32.542Z,41.53
2022-10-31T19:26:00.453Z,44.33
2022-10-31T19:28:29.473Z,44.20
2022-10-31T19:30:55.890Z,45.53
2022-10-31T19:33:22.441Z,45.85
2022-10-31T19:35:48.878Z,48.63
2022-10-31T19:38:15.265Z,48.63
2022-10-31T19:40:41.682Z,50.42
2022-10-31T19:43:09.648Z,51.47
2022-10-31T19:45:36.045Z,50.13
2022-10-31T19:48:02.831Z,52.38
2022-10-31T19:50:29.757Z,53.60
2022-10-31T19:52:56.196Z,53.30
2022-10-31T19:55:22.646Z,52.35
2022-10-31T19:58:01.330Z,52.50
2022-10-31T20:00:29.866Z,52.83
2022-10-31T20:02:56.270Z,51.17
2022-10-31T20:05:22.699Z,56.25
2022-10-31T20:07:49.114Z,54.47
2022-10-31T20:10:15.718Z,54.53
2022-10-31T20:12:42.127Z,51.13
2022-10-31T20:15:09.322Z,51.42
2022-10-31T20:17:37.130Z,54.65
2022-10-31T20:20:04.230Z,51.22
2022-10-31T20:22:30.717Z,51.72
2022-10-31T20:24:57.138Z,50.95
2022-10-31T20:27:23.868Z,48.92
2022-10-31T20:29:50.234Z,48.55
2022-10-31T20:32:16.813Z,47.50
2022-10-31T20:34:44.643Z,50.45
2022-10-31T20:37:11.106Z,49.47
2022-10-31T20:39:37.897Z,48.65
2022-10-31T20:42:05.218Z,50.83
2022-10-31T20:44:31.991Z,48.63
2022-10-31T20:46:58.691Z,45.70
2022-10-31T20:49:25.317Z,48.70
2022-10-31T20:51:53.066Z,46.25
2022-10-31T20:54:19.489Z,47.05
2022-10-31T20:56:45.994Z,47.65
2022-10-31T20:59:12.426Z,48.95
2022-10-31T21:01:39.071Z,48.35
2022-10-31T21:04:05.704Z,46.72
2022-10-31T21:06:32.149Z,49.63
2022-10-31T21:08:59.909Z,48.65
2022-10-31T21:11:27.791Z,47.88
2022-10-31T21:13:54.468Z,49.88
2022-10-31T21:16:22.845Z,48.47
2022-10-31T21:18:50.080Z,46.47
2022-10-31T21:21:18.704Z,49.10
2022-10-31T21:23:45.693Z,47.90
2022-10-31T21:26:16.070Z,49.13
2022-10-31T21:28:42.852Z,53.58
2022-10-31T21:31:11.070Z,50.92
2022-10-31T21:33:37.989Z,50.30
2022-10-31T21:36:05.590Z,51.08
2022-10-31T21:38:32.708Z,49.15
2022-10-31T21:40:59.835Z,47.17
2022-10-31T21:43:27.858Z,49.90
2022-10-31T21:45:54.384Z,49.05
2022-10-31T21:48:20.879Z,49.58
2022-10-31T21:50:47.299Z,51.33
2022-10-31T21:53:13.686Z,49.20
2022-10-31T21:55:40.115Z,48.15
2022-10-31T21:58:06.538Z,48.53
2022-10-31T22:00:34.271Z,46.67
2022-10-31T22:03:01.601Z,46.70
2022-10-31T22:05:28.042Z,43.53
2022-10-31T22:07:54.444Z,47.58
2022-10-31T22:10:20.841Z,48.28
2022-10-31T22:12:47.227Z,46.90
2022-10-31T22:15:14.090Z,48.33
2022-10-31T22:17:41.842Z,47.63
2022-10-31T22:20:09.211Z,45.60
2022-10-31T22:22:35.629Z,47.42
2022-10-31T22:25:02.014Z,45.05
2022-10-31T22:27:28.384Z,46.90
2022-10-31T22:29:56.651Z,43.50
2022-10-31T22:32:23.248Z,43.88
2022-10-31T22:34:50.962Z,44.65
2022-10-31T22:37:19.693Z,43.58
2022-10-31T22:39:46.389Z,42.42
2022-10-31T22:42:12.789Z,41.25
2022-10-31T22:44:39.206Z,42.58
2022-10-31T22:47:05.613Z,40.15
2022-10-31T22:49:32.009Z,40.80
2022-10-31T22:51:59.793Z,40.22
2022-10-31T22:54:26.534Z,38.00
2022-10-31T22:56:52.929Z,39.15
2022-10-31T22:59:19.386Z,40.10
2022-10-31T23:01:46.269Z,38.40
2022-10-31T23:04:13.747Z,40.00
2022-10-31T23:06:40.198Z,41.15
2022-10-31T23:09:08.886Z,39.97
2022-10-31T23:11:38.820Z,38.67
2022-10-31T23:14:07.037Z,40.05
2022-10-31T23:16:34.289Z,39.83
2022-10-31T23:19:01.795Z,37.88
2022-10-31T23:21:28.300Z,40.83
2022-10-31T23:23:55.375Z,43.03
2022-10-31T23:26:23.132Z,38.30
2022-10-31T23:28:49.568Z,39.58
2022-10-31T23:31:15.984Z,40.17
2022-10-31T23:33:42.407Z,39.63
2022-10-31T23:36:09.146Z,38.35
2022-10-31T23:38:35.536Z,36.17
2022-10-31T23:41:01.970Z,39.83
2022-10-31T23:43:29.707Z,37.38
2022-10-31T23:45:56.096Z,36.03
2022-10-31T23:48:22.485Z,38.10
2022-10-31T23:50:49.095Z,36.50
2022-10-31T23:53:15.501Z,38.33
2022-10-31T23:55:41.915Z,37.85
2022-10-31T23:58:08.319Z,38.00
